createdAt,value
2022-08-09T00:04:08.534Z,101194.19
2022-08-09T00:55:02.921Z,101197.09
2022-08-09T00:57:50.468Z,101195.94
2022-08-09T01:00:45.865Z,101215.88
2022-08-09T01:03:46.282Z,101230.78
2022-08-09T01:07:01.951Z,101209.59
2022-08-09T01:10:03.706Z,101211.22
2022-08-09T01:13:41.990Z,101239.72
2022-08-09T01:16:47.210Z,101235.41
2022-08-09T01:20:02.748Z,101231.25
2022-08-09T01:22:51.218Z,101237.97
2022-08-09T01:25:56.356Z,101217.47
2022-08-09T01:28:44.991Z,101231.47
2022-08-09T01:32:31.030Z,101187.69
2022-08-09T01:34:39.372Z,101221.66
2022-08-09T01:38:05.821Z,101205.41
2022-08-09T01:41:03.119Z,101232.53
2022-08-09T01:43:55.780Z,101224.28
2022-08-09T01:46:47.053Z,101238.03
2022-08-09T01:49:38.999Z,101228.31
2022-08-09T01:52:26.139Z,101233.84
2022-08-09T01:55:13.900Z,101230.94
2022-08-09T01:58:00.502Z,101233.16
2022-08-09T02:00:50.599Z,101223.50
2022-08-09T02:03:37.342Z,101233.66
2022-08-09T02:06:45.382Z,101233.78
2022-08-09T02:09:48.852Z,101234.00
2022-08-09T02:12:46.139Z,101202.00
2022-08-09T02:15:36.337Z,101226.69
2022-08-09T02:18:36.497Z,101224.19
2022-08-09T02:21:23.310Z,101209.09
2022-08-09T02:24:11.587Z,101235.97
2022-08-09T02:27:13.171Z,101240.28
2022-08-09T02:30:06.595Z,101228.56
2022-08-09T02:32:53.907Z,101233.31
2022-08-09T02:36:02.614Z,101232.41
2022-08-09T02:38:51.807Z,101244.91
2022-08-09T02:41:44.861Z,101242.47
2022-08-09T02:44:35.550Z,101235.63
2022-08-09T02:47:22.549Z,101239.91
2022-08-09T02:50:14.075Z,101237.56
2022-08-09T02:53:04.115Z,101238.63
2022-08-09T02:55:58.569Z,101237.00
2022-08-09T03:02:06.429Z,101237.00
2022-08-09T03:04:54.894Z,101242.88
2022-08-09T03:07:44.477Z,101249.63
2022-08-09T03:10:46.137Z,101220.81
2022-08-09T03:14:16.119Z,101245.50
2022-08-09T03:17:07.291Z,101252.78
2022-08-09T03:20:10.829Z,101247.41
2022-08-09T03:23:15.191Z,101252.03
2022-08-09T03:26:09.094Z,101256.28
2022-08-09T03:28:59.872Z,101240.03
2022-08-09T03:32:00.278Z,101256.47
2022-08-09T03:34:55.888Z,101256.31
2022-08-09T03:37:55.799Z,101253.41
2022-08-09T03:40:55.052Z,101241.50
2022-08-09T03:44:03.265Z,101250.66
2022-08-09T03:46:59.961Z,101221.38
2022-08-09T03:49:58.446Z,101245.56
2022-08-09T03:52:46.138Z,101241.84
2022-08-09T03:55:47.771Z,101247.03
2022-08-09T03:58:38.721Z,101254.88
2022-08-09T04:01:28.021Z,101242.81
2022-08-09T04:04:15.825Z,101248.66
2022-08-09T04:07:03.962Z,101263.84
2022-08-09T04:09:54.816Z,101262.22
2022-08-09T04:12:53.645Z,101257.47
2022-08-09T04:16:20.986Z,101219.75
2022-08-09T04:18:51.078Z,101227.19
2022-08-09T04:21:40.093Z,101236.00
2022-08-09T04:24:27.251Z,101266.25
2022-08-09T04:27:14.495Z,101239.56
2022-08-09T04:30:02.409Z,101270.16
2022-08-09T04:32:52.838Z,101263.66
2022-08-09T04:35:42.615Z,101256.66
2022-08-09T04:39:41.077Z,101263.00
2022-08-09T04:42:31.781Z,101280.69
2022-08-09T04:45:22.688Z,101246.47
2022-08-09T04:48:10.719Z,101225.97
2022-08-09T04:50:58.002Z,101257.50
2022-08-09T04:53:45.163Z,101265.47
2022-08-09T04:56:35.660Z,101268.38
2022-08-09T04:59:26.674Z,101289.84
2022-08-09T05:02:27.324Z,101265.22
2022-08-09T05:05:14.630Z,101262.63
2022-08-09T05:08:19.599Z,101276.19
2022-08-09T05:11:15.874Z,101277.94
2022-08-09T05:14:07.887Z,101282.28
2022-08-09T05:17:02.736Z,101271.97
2022-08-09T05:19:50.782Z,101284.78
2022-08-09T05:23:55.428Z,101284.91
2022-08-09T05:25:54.163Z,101285.03
2022-08-09T05:28:46.782Z,101291.88
2022-08-09T05:31:44.187Z,101289.44
2022-08-09T05:34:38.724Z,101285.38
2022-08-09T05:37:47.763Z,101293.50
2022-08-09T05:40:40.075Z,101296.75
2022-08-09T05:43:37.104Z,101273.31
2022-08-09T05:46:25.509Z,101264.03
2022-08-09T05:50:24.488Z,101299.31
2022-08-09T05:52:30.813Z,101296.31
2022-08-09T05:55:23.989Z,101299.06
2022-08-09T05:58:11.779Z,101271.31
2022-08-09T06:01:06.670Z,101300.50
2022-08-09T06:03:58.907Z,101299.69
2022-08-09T06:06:49.790Z,101309.81
2022-08-09T06:10:02.094Z,101300.91
2022-08-09T06:12:57.780Z,101303.22
2022-08-09T06:16:04.952Z,101307.06
2022-08-09T06:18:53.150Z,101310.78
2022-08-09T06:21:51.554Z,101306.84
2022-08-09T06:24:45.755Z,101312.97
2022-08-09T06:27:42.379Z,101320.75
2022-08-09T06:30:29.420Z,101306.38
2022-08-09T06:33:40.008Z,101290.63
2022-08-09T06:36:27.094Z,101313.56
2022-08-09T06:39:14.873Z,101328.41
2022-08-09T06:42:09.434Z,101327.03
2022-08-09T06:46:04.348Z,101324.84
2022-08-09T06:48:09.517Z,101326.81
2022-08-09T06:51:05.990Z,101317.19
2022-08-09T06:53:54.078Z,101331.56
2022-08-09T06:56:45.618Z,101331.59
2022-08-09T07:00:52.511Z,101339.00
2022-08-09T07:02:45.510Z,101339.94
2022-08-09T07:06:02.638Z,101340.38
2022-08-09T07:08:42.526Z,101338.31
2022-08-09T07:11:45.689Z,101343.28
2022-08-09T07:14:39.476Z,101340.41
2022-08-09T07:17:25.306Z,101293.53
2022-08-09T07:20:12.723Z,101323.00
2022-08-09T07:22:59.538Z,101348.88
2022-08-09T07:25:52.576Z,101343.28
2022-08-09T07:29:01.356Z,101326.91
2022-08-09T07:31:56.483Z,101298.13
2022-08-09T07:34:44.229Z,101324.41
2022-08-09T07:37:43.308Z,101347.56
2022-08-09T07:40:54.097Z,101356.81
2022-08-09T07:43:41.019Z,101363.06
2022-08-09T07:46:28.031Z,101359.09
2022-08-09T07:49:17.109Z,101355.72
2022-08-09T07:52:16.856Z,101351.06
2022-08-09T07:55:08.934Z,101365.44
2022-08-09T07:57:58.405Z,101360.34
2022-08-09T08:00:49.296Z,101359.03
2022-08-09T08:03:54.357Z,101350.22
2022-08-09T08:06:56.000Z,101335.69
2022-08-09T08:09:51.546Z,101359.97
2022-08-09T08:12:45.207Z,101350.53
2022-08-09T08:15:39.233Z,101356.72
2022-08-09T08:18:28.083Z,101354.13
2022-08-09T08:21:14.090Z,101367.59
2022-08-09T08:24:12.117Z,101366.44
2022-08-09T08:27:03.418Z,101369.81
2022-08-09T08:29:52.533Z,101363.94
2022-08-09T08:32:52.634Z,101360.53
2022-08-09T08:35:58.552Z,101364.88
2022-08-09T08:38:48.429Z,101373.94
2022-08-09T08:41:41.783Z,101375.31
2022-08-09T08:44:39.605Z,101336.69
2022-08-09T08:47:28.278Z,101370.47
2022-08-09T08:50:18.140Z,101369.97
2022-08-09T08:53:05.465Z,101375.75
2022-08-09T08:55:52.865Z,101373.72
2022-08-09T08:58:46.367Z,101378.63
2022-08-09T09:01:53.010Z,101373.91
2022-08-09T09:04:48.130Z,101372.94
2022-08-09T09:07:45.129Z,101370.22
2022-08-09T09:10:32.315Z,101371.84
2022-08-09T09:13:19.309Z,101390.44
2022-08-09T09:16:11.295Z,101384.84
2022-08-09T09:22:16.447Z,101378.50
2022-08-09T09:26:01.612Z,101357.47
2022-08-09T09:28:10.891Z,101377.69
2022-08-09T09:31:02.047Z,101360.78
2022-08-09T09:33:56.813Z,101379.84
2022-08-09T09:36:51.009Z,101382.72
2022-08-09T09:39:55.637Z,101337.41
2022-08-09T09:42:46.254Z,101382.31
2022-08-09T09:49:03.215Z,101389.25
2022-08-09T09:51:51.356Z,101378.06
2022-08-09T09:54:40.162Z,101396.59
2022-08-09T09:58:03.949Z,101384.81
2022-08-09T10:00:54.094Z,101352.66
2022-08-09T10:03:57.063Z,101365.19
2022-08-09T10:06:52.119Z,101372.16
2022-08-09T10:09:54.617Z,101373.66
2022-08-09T10:12:43.561Z,101373.22
2022-08-09T10:16:09.508Z,101350.44
2022-08-09T10:18:39.008Z,101376.59
2022-08-09T10:21:50.045Z,101370.44
2022-08-09T10:24:37.270Z,101366.63
2022-08-09T10:27:28.495Z,101361.91
2022-08-09T10:34:05.001Z,101339.16
2022-08-09T10:36:31.787Z,101360.22
2022-08-09T10:39:28.321Z,101362.19
2022-08-09T10:42:17.203Z,101363.44
2022-08-09T10:45:11.905Z,101350.72
2022-08-09T10:48:30.447Z,101327.19
2022-08-09T10:51:44.506Z,101358.56
2022-08-09T10:54:33.788Z,101344.91
2022-08-09T10:57:36.379Z,101347.09
2022-08-09T11:01:10.876Z,101339.16
2022-08-09T11:04:27.742Z,101347.00
2022-08-09T11:07:19.161Z,101317.81
2022-08-09T11:10:10.029Z,101322.22
2022-08-09T11:13:50.511Z,101332.94
2022-08-09T11:16:41.470Z,101336.50
2022-08-09T11:20:07.804Z,101341.78
2022-08-09T11:22:58.754Z,101334.97
2022-08-09T11:25:48.250Z,101336.63
2022-08-09T11:28:56.306Z,101342.97
2022-08-09T11:31:49.850Z,101335.34
2022-08-09T11:34:51.431Z,101334.88
2022-08-09T11:37:41.566Z,101335.25
2022-08-09T11:40:32.104Z,101317.88
2022-08-09T11:43:32.255Z,101333.53
2022-08-09T11:46:33.015Z,101314.28
2022-08-09T11:49:28.063Z,101307.53
2022-08-09T11:53:03.500Z,101325.34
2022-08-09T11:55:52.856Z,101321.75
2022-08-09T11:58:48.226Z,101321.38
2022-08-09T12:02:17.753Z,101307.75
2022-08-09T12:04:47.507Z,101306.00
2022-08-09T12:07:42.207Z,101309.28
2022-08-09T12:10:39.384Z,101307.16
2022-08-09T12:14:07.452Z,101311.16
2022-08-09T12:16:44.463Z,101288.66
2022-08-09T12:19:35.925Z,101315.63
2022-08-09T12:22:27.528Z,101311.06
2022-08-09T12:25:35.930Z,101301.34
2022-08-09T12:29:14.240Z,101305.28
2022-08-09T12:31:58.997Z,101299.13
2022-08-09T12:34:39.781Z,101303.44
2022-08-09T12:37:50.600Z,101310.19
2022-08-09T12:40:44.793Z,101297.66
2022-08-09T12:44:07.032Z,101298.91
2022-08-09T12:46:49.228Z,101304.94
2022-08-09T12:49:37.161Z,101274.91
2022-08-09T12:52:40.306Z,101300.66
2022-08-09T12:56:13.681Z,101303.81
2022-08-09T12:58:43.433Z,101298.69
2022-08-09T13:01:29.911Z,101282.19
2022-08-09T13:04:27.545Z,101283.00
2022-08-09T13:07:49.988Z,101281.78
2022-08-09T13:10:34.881Z,101283.75
2022-08-09T13:14:01.046Z,101277.38
2022-08-09T13:16:51.993Z,101272.19
2022-08-09T13:20:06.964Z,101272.66
2022-08-09T13:23:04.871Z,101271.81
2022-08-09T13:25:56.151Z,101266.72
2022-08-09T13:28:43.574Z,101238.25
2022-08-09T13:32:15.902Z,101247.16
2022-08-09T13:34:40.681Z,101278.66
2022-08-09T13:37:52.465Z,101263.88
2022-08-09T13:41:50.640Z,101243.41
2022-08-09T13:43:41.707Z,101233.78
2022-08-09T13:47:13.039Z,101255.16
2022-08-09T13:49:39.518Z,101271.59
2022-08-09T13:52:46.044Z,101244.63
2022-08-09T13:55:33.881Z,101266.72
2022-08-09T13:58:25.755Z,101230.41
2022-08-09T14:01:55.710Z,101271.34
2022-08-09T14:04:26.530Z,101272.13
2022-08-09T14:07:16.779Z,101284.13
2022-08-09T14:10:05.909Z,101274.31
2022-08-09T14:12:54.239Z,101263.13
2022-08-09T14:16:06.513Z,101296.00
2022-08-09T14:18:51.633Z,101286.31
2022-08-09T14:21:40.279Z,101285.38
2022-08-09T14:24:32.576Z,101283.13
2022-08-09T14:27:21.394Z,101287.31
2022-08-09T14:30:36.911Z,101293.06
2022-08-09T14:33:20.711Z,101262.84
2022-08-09T14:36:20.206Z,101288.50
2022-08-09T14:39:10.873Z,101293.94
2022-08-09T14:42:01.036Z,101271.28
2022-08-09T14:45:00.107Z,101289.44
2022-08-09T14:47:59.399Z,101287.34
2022-08-09T14:50:48.081Z,101282.53
2022-08-09T14:53:38.989Z,101282.59
2022-08-09T14:56:33.025Z,101283.78
2022-08-09T14:59:22.782Z,101288.19
2022-08-09T15:02:11.443Z,101281.31
2022-08-09T15:05:01.000Z,101291.00
2022-08-09T15:07:56.316Z,101298.22
2022-08-09T15:11:00.643Z,101285.72
2022-08-09T15:14:01.691Z,101291.31
2022-08-09T15:16:53.560Z,101284.16
2022-08-09T15:19:54.495Z,101286.59
2022-08-09T15:22:49.670Z,101306.75
2022-08-09T15:25:50.224Z,101300.47
2022-08-09T15:28:36.895Z,101281.63
2022-08-09T15:31:41.871Z,101276.69
2022-08-09T15:34:32.599Z,101299.19
2022-08-09T15:37:57.062Z,101297.56
2022-08-09T15:40:53.171Z,101268.50
2022-08-09T15:43:43.538Z,101271.66
2022-08-09T15:46:35.301Z,101289.81
2022-08-09T15:49:23.736Z,101296.91
2022-08-09T15:52:11.919Z,101304.06
2022-08-09T15:54:58.248Z,101301.97
2022-08-09T15:57:51.172Z,101304.38
2022-08-09T16:00:38.344Z,101304.75
2022-08-09T16:03:29.521Z,101293.31
2022-08-09T16:06:35.675Z,101304.88
2022-08-09T16:09:32.532Z,101297.31
2022-08-09T16:12:34.743Z,101306.81
2022-08-09T16:16:11.679Z,101305.47
2022-08-09T16:18:34.593Z,101300.16
2022-08-09T16:21:25.838Z,101266.75
2022-08-09T16:24:30.257Z,101286.13
2022-08-09T16:27:20.608Z,101307.44
2022-08-09T16:30:14.926Z,101260.97
2022-08-09T16:33:08.838Z,101287.94
2022-08-09T16:35:59.945Z,101306.94
2022-08-09T16:38:51.614Z,101302.75
2022-08-09T16:42:03.489Z,101298.31
2022-08-09T16:44:47.607Z,101297.44
2022-08-09T16:48:43.399Z,101305.09
2022-08-09T16:50:58.796Z,101277.16
2022-08-09T16:56:55.299Z,101313.34
2022-08-09T16:59:50.240Z,101313.25
2022-08-09T17:02:46.693Z,101310.69
2022-08-09T17:06:03.422Z,101303.72
2022-08-09T17:08:59.866Z,101265.91
2022-08-09T17:11:54.317Z,101288.75
2022-08-09T17:14:46.352Z,101309.34
2022-08-09T17:17:50.761Z,101319.25
2022-08-09T17:20:44.268Z,101313.91
2022-08-09T17:24:20.582Z,101292.66
2022-08-09T17:26:53.384Z,101316.09
2022-08-09T17:29:45.653Z,101308.78
2022-08-09T17:32:37.959Z,101290.44
2022-08-09T17:35:26.166Z,101315.91
2022-08-09T17:38:32.611Z,101281.38
2022-08-09T17:41:21.895Z,101307.63
2022-08-09T17:44:42.569Z,101305.56
2022-08-09T17:47:32.951Z,101316.66
2022-08-09T17:50:37.759Z,101300.44
2022-08-09T17:53:25.821Z,101315.56
2022-08-09T17:56:12.451Z,101302.22
2022-08-09T17:59:01.146Z,101318.06
2022-08-09T18:02:07.536Z,101308.69
2022-08-09T18:04:58.792Z,101314.63
2022-08-09T18:07:48.770Z,101326.97
2022-08-09T18:10:38.616Z,101319.66
2022-08-09T18:13:43.054Z,101268.28
2022-08-09T18:16:49.052Z,101329.91
2022-08-09T18:20:55.070Z,101302.63
2022-08-09T18:22:52.296Z,101327.56
2022-08-09T18:25:52.682Z,101333.69
2022-08-09T18:30:41.447Z,101340.34
2022-08-09T18:31:55.063Z,101310.34
2022-08-09T18:34:43.879Z,101347.16
2022-08-09T18:37:48.020Z,101350.53
2022-08-09T18:40:36.975Z,101356.63
2022-08-09T18:43:24.235Z,101344.41
2022-08-09T18:46:50.913Z,101354.59
2022-08-09T18:49:26.605Z,101344.16
2022-08-09T18:52:15.753Z,101352.50
2022-08-09T18:55:03.502Z,101361.78
2022-08-09T18:57:50.259Z,101372.94
2022-08-09T19:00:43.346Z,101361.88
2022-08-09T19:03:29.706Z,101348.34
2022-08-09T19:06:38.612Z,101349.19
2022-08-09T19:10:12.810Z,101361.75
2022-08-09T19:12:31.992Z,101364.25
2022-08-09T19:15:20.306Z,101377.03
2022-08-09T19:18:16.934Z,101375.72
2022-08-09T19:21:05.557Z,101377.31
2022-08-09T19:24:33.205Z,101377.22
2022-08-09T19:27:01.473Z,101369.59
2022-08-09T19:30:24.715Z,101381.97
2022-08-09T19:32:55.397Z,101384.41
2022-08-09T19:35:56.464Z,101378.28
2022-08-09T19:38:45.043Z,101375.00
2022-08-09T19:41:37.259Z,101377.56
2022-08-09T19:44:29.472Z,101385.00
2022-08-09T19:47:15.972Z,101385.63
2022-08-09T19:50:51.221Z,101383.97
2022-08-09T19:53:20.907Z,101376.38
2022-08-09T19:56:07.258Z,101379.59
2022-08-09T19:59:39.312Z,101379.06
2022-08-09T20:02:18.252Z,101374.44
2022-08-09T20:05:18.161Z,101367.94
2022-08-09T20:08:05.981Z,101363.25
2022-08-09T20:10:52.302Z,101377.50
2022-08-09T20:13:39.555Z,101370.28
2022-08-09T20:16:33.706Z,101381.81
2022-08-09T20:19:49.582Z,101327.44
2022-08-09T20:22:35.754Z,101382.66
2022-08-09T20:25:24.260Z,101380.28
2022-08-09T20:28:12.897Z,101368.63
2022-08-09T20:31:15.330Z,101356.38
2022-08-09T20:34:02.177Z,101381.31
2022-08-09T20:36:51.027Z,101386.72
2022-08-09T20:40:15.014Z,101381.78
2022-08-09T20:42:46.508Z,101346.41
2022-08-09T20:45:59.592Z,101386.75
2022-08-09T20:48:49.814Z,101375.03
2022-08-09T20:51:40.798Z,101350.69
2022-08-09T20:54:28.875Z,101379.56
2022-08-09T20:57:15.401Z,101388.69
2022-08-09T21:00:22.265Z,101373.28
2022-08-09T21:03:12.852Z,101371.69
2022-08-09T21:06:09.448Z,101376.56
2022-08-09T21:09:24.948Z,101384.56
2022-08-09T21:12:23.617Z,101393.06
2022-08-09T21:15:23.576Z,101395.16
2022-08-09T21:18:25.931Z,101388.38
2022-08-09T21:21:17.026Z,101373.84
2022-08-09T21:24:04.787Z,101399.44
2022-08-09T21:26:51.983Z,101402.53
2022-08-09T21:29:48.574Z,101394.13
2022-08-09T21:32:36.939Z,101378.25
2022-08-09T21:35:24.555Z,101387.91
2022-08-09T21:38:14.928Z,101374.09
2022-08-09T21:41:03.617Z,101377.53
2022-08-09T21:43:56.536Z,101409.09
2022-08-09T21:46:44.657Z,101407.66
2022-08-09T21:49:39.722Z,101375.75
2022-08-09T21:52:29.470Z,101400.94
2022-08-09T21:55:15.918Z,101394.31
2022-08-09T21:58:03.264Z,101402.28
2022-08-09T22:00:52.549Z,101359.63
2022-08-09T22:03:48.577Z,101404.94
2022-08-09T22:06:58.959Z,101413.50
2022-08-09T22:09:47.910Z,101382.25
2022-08-09T22:12:35.641Z,101389.72
2022-08-09T22:15:34.836Z,101389.63
2022-08-09T22:18:24.069Z,101410.47
2022-08-09T22:21:21.574Z,101397.75
2022-08-09T22:24:08.286Z,101413.47
2022-08-09T22:27:04.649Z,101420.16
2022-08-09T22:29:50.368Z,101386.28
2022-08-09T22:32:36.730Z,101413.81
2022-08-09T22:36:01.272Z,101409.53
2022-08-09T22:38:31.083Z,101396.91
2022-08-09T22:41:18.363Z,101416.03
2022-08-09T22:44:07.293Z,101414.56
2022-08-09T22:48:10.693Z,101415.19
2022-08-09T22:50:01.964Z,101420.31
2022-08-09T22:52:49.113Z,101412.44
2022-08-09T22:56:30.129Z,101414.91
2022-08-09T22:58:47.345Z,101404.66
2022-08-09T23:01:34.041Z,101410.94
2022-08-09T23:04:20.326Z,101411.44
2022-08-09T23:07:31.150Z,101385.06
2022-08-09T23:10:31.670Z,101416.97
2022-08-09T23:13:19.923Z,101358.13
2022-08-09T23:16:07.634Z,101404.59
2022-08-09T23:18:55.224Z,101399.16
2022-08-09T23:21:41.304Z,101378.34
2022-08-09T23:24:28.028Z,101396.47
2022-08-09T23:27:13.954Z,101412.13
2022-08-09T23:29:59.773Z,101404.91
2022-08-09T23:32:45.920Z,101409.06
2022-08-09T23:36:06.546Z,101394.66
2022-08-09T23:38:49.106Z,101396.47
2022-08-09T23:41:35.813Z,101417.47
2022-08-09T23:44:22.804Z,101404.34
2022-08-09T23:47:09.075Z,101400.59
2022-08-09T23:49:55.248Z,101382.59
2022-08-09T23:52:41.573Z,101413.16
2022-08-09T23:55:31.080Z,101409.44
2022-08-09T23:58:27.607Z,101399.97
